createdAt,value
2023-05-22T00:01:56.529Z,94779.88
2023-05-22T00:04:30.151Z,94787.59
2023-05-22T00:06:58.016Z,94790.69
2023-05-22T00:09:26.910Z,94786.75
2023-05-22T00:11:54.894Z,94787.00
2023-05-22T00:14:22.720Z,94789.00
2023-05-22T00:16:50.578Z,94780.28
2023-05-22T00:19:18.862Z,94783.97
2023-05-22T00:21:48.037Z,94782.41
2023-05-22T00:24:15.868Z,94785.75
2023-05-22T00:26:43.683Z,94788.66
2023-05-22T00:29:11.521Z,94790.97
2023-05-22T00:31:39.340Z,94794.13
2023-05-22T00:34:07.220Z,94798.59
2023-05-22T00:36:35.085Z,94789.56
2023-05-22T00:39:04.339Z,94783.63
2023-05-22T00:41:33.980Z,94785.78
2023-05-22T00:44:02.652Z,94792.38
2023-05-22T00:46:31.142Z,94788.44
2023-05-22T00:48:58.986Z,94779.59
2023-05-22T00:51:27.062Z,94779.16
2023-05-22T00:53:55.296Z,94775.69
2023-05-22T00:56:27.027Z,94776.78
2023-05-22T00:58:55.131Z,94781.03
2023-05-22T01:01:26.386Z,94774.44
2023-05-22T01:03:55.692Z,94775.56
2023-05-22T01:06:24.333Z,94776.34
2023-05-22T01:08:52.194Z,94776.22
2023-05-22T01:11:29.439Z,94783.41
2023-05-22T01:14:05.159Z,94791.25
2023-05-22T01:16:40.716Z,94783.75
2023-05-22T01:19:21.064Z,94798.31
2023-05-22T01:21:59.187Z,94799.19
2023-05-22T01:24:54.127Z,94800.00
2023-05-22T01:27:42.233Z,94802.22
2023-05-22T01:30:28.360Z,94802.34
2023-05-22T01:33:00.212Z,94803.78
2023-05-22T01:35:29.598Z,94804.25
2023-05-22T01:37:59.386Z,94810.31
2023-05-22T01:40:28.233Z,94808.28
2023-05-22T01:42:56.451Z,94810.31
2023-05-22T01:45:25.476Z,94803.53
2023-05-22T01:47:53.840Z,94809.72
2023-05-22T01:50:23.202Z,94808.38
2023-05-22T01:53:00.064Z,94811.19
2023-05-22T01:55:35.201Z,94825.31
2023-05-22T01:58:13.231Z,94817.50
2023-05-22T02:00:45.938Z,94814.00
2023-05-22T02:03:21.219Z,94820.97
2023-05-22T02:05:56.085Z,94814.47
2023-05-22T02:08:25.031Z,94827.78
2023-05-22T02:10:56.127Z,94835.88
2023-05-22T02:13:24.303Z,94819.28
2023-05-22T02:15:52.828Z,94818.16
2023-05-22T02:18:20.771Z,94814.13
2023-05-22T02:20:48.607Z,94824.75
2023-05-22T02:23:17.930Z,94827.41
2023-05-22T02:25:45.762Z,94811.25
2023-05-22T02:28:13.608Z,94826.69
2023-05-22T02:30:41.619Z,94814.03
2023-05-22T02:33:09.673Z,94815.19
2023-05-22T02:35:37.760Z,94813.94
2023-05-22T02:38:06.608Z,94813.97
2023-05-22T02:40:36.027Z,94816.50
2023-05-22T02:43:03.955Z,94817.47
2023-05-22T02:45:33.842Z,94829.59
2023-05-22T02:48:03.681Z,94820.59
2023-05-22T02:50:32.856Z,94827.06
2023-05-22T02:53:00.749Z,94821.13
2023-05-22T02:55:28.645Z,94824.00
2023-05-22T02:57:57.832Z,94824.78
2023-05-22T03:00:26.258Z,94816.97
2023-05-22T03:02:55.943Z,94822.34
2023-05-22T03:05:23.902Z,94812.63
2023-05-22T03:07:52.901Z,94825.94
2023-05-22T03:10:20.954Z,94820.44
2023-05-22T03:12:48.799Z,94822.44
2023-05-22T03:15:18.506Z,94823.13
2023-05-22T03:17:46.599Z,94809.47
2023-05-22T03:20:17.113Z,94818.13
2023-05-22T03:22:46.386Z,94821.81
2023-05-22T03:25:15.138Z,94818.25
2023-05-22T03:27:43.029Z,94823.53
2023-05-22T03:30:11.770Z,94824.44
2023-05-22T03:32:43.532Z,94829.59
2023-05-22T03:35:13.073Z,94825.88
2023-05-22T03:37:40.951Z,94822.59
2023-05-22T03:40:10.162Z,94830.91
2023-05-22T03:42:37.970Z,94817.47
2023-05-22T03:45:06.937Z,94827.31
2023-05-22T03:47:34.796Z,94830.38
2023-05-22T03:50:05.688Z,94829.81
2023-05-22T03:52:33.647Z,94836.09
2023-05-22T03:55:01.899Z,94823.88
2023-05-22T03:57:29.716Z,94828.69
2023-05-22T03:59:57.578Z,94829.69
2023-05-22T04:02:26.476Z,94836.28
2023-05-22T04:04:54.478Z,94845.03
2023-05-22T04:07:23.756Z,94840.53
2023-05-22T04:09:51.621Z,94837.72
2023-05-22T04:12:19.495Z,94837.63
2023-05-22T04:14:47.301Z,94838.59
2023-05-22T04:17:15.143Z,94836.94
2023-05-22T04:19:42.972Z,94847.59
2023-05-22T04:22:10.801Z,94841.13
2023-05-22T04:24:40.680Z,94836.28
2023-05-22T04:27:08.494Z,94842.25
2023-05-22T04:29:37.398Z,94834.28
2023-05-22T04:32:06.339Z,94848.09
2023-05-22T04:34:37.388Z,94853.25
2023-05-22T04:37:06.220Z,94852.81
2023-05-22T04:39:34.247Z,94854.38
2023-05-22T04:42:05.933Z,94847.06
2023-05-22T04:44:34.611Z,94856.38
2023-05-22T04:47:03.544Z,94852.28
2023-05-22T04:49:32.101Z,94856.88
2023-05-22T04:52:04.636Z,94860.28
2023-05-22T04:54:32.578Z,94863.94
2023-05-22T04:57:00.460Z,94862.38
2023-05-22T04:59:29.706Z,94862.91
2023-05-22T05:01:57.512Z,94862.00
2023-05-22T05:04:25.878Z,94870.78
2023-05-22T05:06:55.106Z,94874.63
2023-05-22T05:09:22.959Z,94860.78
2023-05-22T05:11:51.069Z,94866.91
2023-05-22T05:14:19.754Z,94868.91
2023-05-22T05:16:48.986Z,94865.47
2023-05-22T05:19:17.552Z,94855.91
2023-05-22T05:21:45.879Z,94862.88
2023-05-22T05:24:13.848Z,94857.00
2023-05-22T05:26:41.774Z,94859.44
2023-05-22T05:29:10.144Z,94863.03
2023-05-22T05:31:43.455Z,94859.44
2023-05-22T05:34:32.996Z,94866.69
2023-05-22T05:37:04.069Z,94862.44
2023-05-22T05:39:32.486Z,94870.56
2023-05-22T05:42:02.704Z,94866.09
2023-05-22T05:44:30.805Z,94870.59
2023-05-22T05:46:58.686Z,94864.72
2023-05-22T05:49:27.862Z,94875.66
2023-05-22T05:51:57.056Z,94873.53
2023-05-22T05:54:27.124Z,94873.59
2023-05-22T05:56:57.667Z,94884.31
2023-05-22T05:59:25.878Z,94874.13
2023-05-22T06:02:12.417Z,94876.81
2023-05-22T06:04:40.347Z,94877.66
2023-05-22T06:07:09.659Z,94876.00
2023-05-22T06:09:46.041Z,94876.91
2023-05-22T06:12:21.250Z,94885.84
2023-05-22T06:14:49.248Z,94886.44
2023-05-22T06:17:17.257Z,94881.69
2023-05-22T06:19:46.244Z,94887.63
2023-05-22T06:22:16.544Z,94887.13
2023-05-22T06:24:46.747Z,94881.31
2023-05-22T06:27:18.861Z,94880.81
2023-05-22T06:29:47.046Z,94883.47
2023-05-22T06:32:15.095Z,94888.91
2023-05-22T06:34:45.372Z,94890.16
2023-05-22T06:37:14.162Z,94895.94
2023-05-22T06:39:45.956Z,94892.13
2023-05-22T06:42:34.535Z,94897.13
2023-05-22T06:45:20.818Z,94893.97
2023-05-22T06:48:03.878Z,94893.84
2023-05-22T06:50:33.979Z,94893.06
2023-05-22T06:53:02.240Z,94886.44
2023-05-22T06:55:31.685Z,94892.44
2023-05-22T06:58:07.297Z,94890.34
2023-05-22T07:00:36.781Z,94896.00
2023-05-22T07:03:25.000Z,94896.13
2023-05-22T07:06:16.223Z,94892.28
2023-05-22T07:08:44.210Z,94898.28
2023-05-22T07:11:13.682Z,94900.84
2023-05-22T07:13:41.523Z,94900.13
2023-05-22T07:16:09.667Z,94904.78
2023-05-22T07:18:38.368Z,94896.19
2023-05-22T07:21:06.866Z,94901.19
2023-05-22T07:23:35.169Z,94915.25
2023-05-22T07:26:03.209Z,94907.44
2023-05-22T07:28:37.960Z,94924.81
2023-05-22T07:31:13.041Z,94912.63
2023-05-22T07:33:41.047Z,94909.81
2023-05-22T07:36:09.242Z,94912.75
2023-05-22T07:38:39.741Z,94915.63
2023-05-22T07:41:07.541Z,94907.59
2023-05-22T07:43:37.357Z,94912.53
2023-05-22T07:46:06.700Z,94909.63
2023-05-22T07:48:40.814Z,94908.94
2023-05-22T07:51:08.922Z,94903.72
2023-05-22T07:53:37.121Z,94907.63
2023-05-22T07:56:06.277Z,94901.38
2023-05-22T07:58:37.023Z,94906.06
2023-05-22T08:01:07.352Z,94904.50
2023-05-22T08:03:36.670Z,94909.47
2023-05-22T08:06:05.414Z,94909.47
2023-05-22T08:08:33.753Z,94899.28
2023-05-22T08:11:04.444Z,94906.03
2023-05-22T08:13:32.656Z,94912.06
2023-05-22T08:16:02.194Z,94906.59
2023-05-22T08:18:30.360Z,94901.84
2023-05-22T08:20:59.708Z,94905.22
2023-05-22T08:23:27.525Z,94901.84
2023-05-22T08:25:55.361Z,94908.63
2023-05-22T08:28:23.447Z,94906.47
2023-05-22T08:30:51.710Z,94910.38
2023-05-22T08:33:20.968Z,94903.75
2023-05-22T08:35:48.801Z,94901.50
2023-05-22T08:38:17.544Z,94896.03
2023-05-22T08:40:48.998Z,94897.25
2023-05-22T08:43:17.166Z,94888.38
2023-05-22T08:45:45.844Z,94894.09
2023-05-22T08:48:14.833Z,94888.31
2023-05-22T08:50:44.279Z,94896.41
2023-05-22T08:53:14.872Z,94880.66
2023-05-22T08:55:42.813Z,94894.97
2023-05-22T08:58:12.502Z,94899.75
2023-05-22T09:00:41.094Z,94891.84
2023-05-22T09:03:10.182Z,94900.53
2023-05-22T09:05:39.222Z,94888.44
2023-05-22T09:08:19.856Z,94891.28
2023-05-22T09:10:48.612Z,94890.88
2023-05-22T09:13:25.785Z,94893.44
2023-05-22T09:15:53.654Z,94888.38
2023-05-22T09:18:22.076Z,94882.88
2023-05-22T09:20:49.876Z,94880.75
2023-05-22T09:23:20.306Z,94887.91
2023-05-22T09:25:48.159Z,94884.91
2023-05-22T09:28:15.978Z,94892.44
2023-05-22T09:30:43.977Z,94873.50
2023-05-22T09:33:17.003Z,94888.13
2023-05-22T09:35:45.803Z,94888.03
2023-05-22T09:38:14.265Z,94895.53
2023-05-22T09:40:43.643Z,94898.28
2023-05-22T09:43:12.110Z,94895.50
2023-05-22T09:45:40.758Z,94898.56
2023-05-22T09:48:10.444Z,94893.66
2023-05-22T09:50:39.605Z,94897.91
2023-05-22T09:53:09.375Z,94889.75
2023-05-22T09:55:38.203Z,94890.34
2023-05-22T09:58:10.171Z,94899.00
2023-05-22T10:00:39.017Z,94899.59
2023-05-22T10:03:12.147Z,94896.25
2023-05-22T10:05:45.002Z,94888.69
2023-05-22T10:08:16.170Z,94890.22
2023-05-22T10:10:46.871Z,94896.09
2023-05-22T10:13:17.154Z,94901.84
2023-05-22T10:15:45.291Z,94897.50
2023-05-22T10:18:15.519Z,94888.50
2023-05-22T10:20:43.732Z,94891.63
2023-05-22T10:23:11.718Z,94886.81
2023-05-22T10:25:39.877Z,94889.09
2023-05-22T10:28:08.769Z,94887.63
2023-05-22T10:30:48.204Z,94879.81
2023-05-22T10:33:55.634Z,94887.09
2023-05-22T10:36:38.744Z,94878.78
2023-05-22T10:39:19.824Z,94892.28
2023-05-22T10:41:47.694Z,94880.16
2023-05-22T10:44:15.550Z,94877.69
2023-05-22T10:46:49.568Z,94873.59
2023-05-22T10:49:22.463Z,94880.22
2023-05-22T10:51:50.615Z,94873.28
2023-05-22T10:54:18.491Z,94879.59
2023-05-22T10:56:46.772Z,94879.41
2023-05-22T10:59:14.577Z,94863.59
2023-05-22T11:01:42.489Z,94874.75
2023-05-22T11:04:20.646Z,94870.38
2023-05-22T11:07:05.176Z,94869.69
2023-05-22T11:09:34.092Z,94870.50
2023-05-22T11:12:17.408Z,94871.44
2023-05-22T11:14:50.228Z,94867.06
2023-05-22T11:17:20.389Z,94858.41
2023-05-22T11:20:05.913Z,94873.19
2023-05-22T11:22:37.085Z,94860.84
2023-05-22T11:25:08.620Z,94860.84
2023-05-22T11:27:37.526Z,94856.31
2023-05-22T11:30:06.718Z,94862.03
2023-05-22T11:32:37.082Z,94856.59
2023-05-22T11:35:08.404Z,94851.84
2023-05-22T11:37:39.748Z,94849.53
2023-05-22T11:40:08.774Z,94857.13
2023-05-22T11:42:36.953Z,94852.06
2023-05-22T11:45:05.773Z,94855.41
2023-05-22T11:47:33.804Z,94848.91
2023-05-22T11:50:02.093Z,94848.84
2023-05-22T11:52:33.520Z,94847.16
2023-05-22T11:55:01.691Z,94849.69
2023-05-22T11:57:29.516Z,94850.50
2023-05-22T11:59:57.787Z,94842.19
2023-05-22T12:02:25.920Z,94835.63
2023-05-22T12:04:55.880Z,94847.13
2023-05-22T12:07:24.324Z,94842.19
2023-05-22T12:09:53.578Z,94838.84
2023-05-22T12:12:22.613Z,94830.13
2023-05-22T12:14:50.969Z,94836.63
2023-05-22T12:17:19.650Z,94834.25
2023-05-22T12:19:48.245Z,94825.50
2023-05-22T12:22:16.141Z,94836.63
2023-05-22T12:24:46.963Z,94830.25
2023-05-22T12:27:16.500Z,94839.81
2023-05-22T12:29:44.485Z,94827.56
2023-05-22T12:32:14.120Z,94829.94
2023-05-22T12:34:46.613Z,94827.84
2023-05-22T12:37:21.577Z,94829.94
2023-05-22T12:39:57.285Z,94823.53
2023-05-22T12:42:26.657Z,94827.44
2023-05-22T12:44:55.575Z,94827.28
2023-05-22T12:47:24.423Z,94827.97
2023-05-22T12:49:52.919Z,94815.84
2023-05-22T12:52:20.813Z,94819.19
2023-05-22T12:54:48.780Z,94807.41
2023-05-22T12:57:17.096Z,94808.53
2023-05-22T12:59:46.312Z,94810.50
2023-05-22T13:02:14.177Z,94802.84
2023-05-22T13:04:42.015Z,94807.69
2023-05-22T13:07:09.953Z,94805.84
2023-05-22T13:09:37.810Z,94805.44
2023-05-22T13:12:06.466Z,94810.13
2023-05-22T13:14:34.427Z,94806.97
2023-05-22T13:17:03.644Z,94795.41
2023-05-22T13:19:32.129Z,94796.78
2023-05-22T13:22:00.126Z,94800.69
2023-05-22T13:24:27.970Z,94800.50
2023-05-22T13:26:55.835Z,94796.34
2023-05-22T13:29:23.651Z,94788.88
2023-05-22T13:31:51.486Z,94798.44
2023-05-22T13:34:20.874Z,94789.00
2023-05-22T13:36:48.809Z,94793.22
2023-05-22T13:39:16.723Z,94786.09
2023-05-22T13:41:44.628Z,94789.53
2023-05-22T13:44:12.616Z,94785.16
2023-05-22T13:46:41.220Z,94796.03
2023-05-22T13:49:11.759Z,94781.84
2023-05-22T13:51:41.172Z,94792.75
2023-05-22T13:54:09.138Z,94788.88
2023-05-22T13:56:37.001Z,94788.25
2023-05-22T13:59:06.479Z,94790.53
2023-05-22T14:01:36.863Z,94785.47
2023-05-22T14:04:05.561Z,94797.72
2023-05-22T14:06:33.486Z,94794.16
2023-05-22T14:09:03.572Z,94788.56
2023-05-22T14:11:31.418Z,94784.84
2023-05-22T14:13:59.243Z,94781.06
2023-05-22T14:16:27.103Z,94776.47
2023-05-22T14:18:54.976Z,94766.22
2023-05-22T14:21:22.915Z,94768.41
2023-05-22T14:23:50.887Z,94758.66
2023-05-22T14:26:21.273Z,94759.59
2023-05-22T14:28:49.282Z,94761.06
2023-05-22T14:31:17.192Z,94769.50
2023-05-22T14:33:45.148Z,94779.47
2023-05-22T14:36:12.991Z,94783.25
2023-05-22T14:38:40.900Z,94784.63
2023-05-22T14:41:08.896Z,94782.47
2023-05-22T14:43:38.157Z,94784.63
2023-05-22T14:46:06.262Z,94794.75
2023-05-22T14:48:34.286Z,94789.81
2023-05-22T14:51:02.155Z,94786.28
2023-05-22T14:53:30.039Z,94798.19
2023-05-22T14:55:57.967Z,94803.50
2023-05-22T14:58:25.926Z,94804.56
2023-05-22T15:00:55.538Z,94791.66
2023-05-22T15:03:23.681Z,94796.78
2023-05-22T15:05:51.491Z,94805.44
2023-05-22T15:08:20.446Z,94798.91
2023-05-22T15:10:48.309Z,94793.66
2023-05-22T15:13:16.207Z,94788.47
2023-05-22T15:15:44.158Z,94789.16
2023-05-22T15:18:14.188Z,94797.03
2023-05-22T15:20:42.127Z,94811.31
2023-05-22T15:23:09.941Z,94797.00
2023-05-22T15:25:37.862Z,94797.91
2023-05-22T15:28:06.400Z,94789.31
2023-05-22T15:30:36.444Z,94797.81
2023-05-22T15:33:04.560Z,94798.91
2023-05-22T15:35:33.752Z,94803.84
2023-05-22T15:38:03.058Z,94801.91
2023-05-22T15:40:31.283Z,94811.34
2023-05-22T15:43:01.786Z,94813.19
2023-05-22T15:45:30.554Z,94805.50
2023-05-22T15:47:58.602Z,94793.81
2023-05-22T15:50:26.521Z,94797.13
2023-05-22T15:52:55.710Z,94790.78
2023-05-22T15:55:23.665Z,94785.38
2023-05-22T15:57:51.524Z,94786.84
2023-05-22T16:00:21.153Z,94792.28
2023-05-22T16:02:49.728Z,94790.31
2023-05-22T16:05:17.815Z,94786.59
2023-05-22T16:07:45.728Z,94787.28
2023-05-22T16:10:15.076Z,94788.44
2023-05-22T16:12:42.905Z,94781.63
2023-05-22T16:15:11.748Z,94784.88
2023-05-22T16:17:39.984Z,94780.91
2023-05-22T16:20:09.500Z,94776.34
2023-05-22T16:22:48.200Z,94784.25
2023-05-22T16:25:18.591Z,94789.81
2023-05-22T16:27:46.654Z,94789.38
2023-05-22T16:30:16.703Z,94788.56
2023-05-22T16:32:46.034Z,94784.53
2023-05-22T16:35:14.094Z,94780.06
2023-05-22T16:37:42.118Z,94777.72
2023-05-22T16:40:10.618Z,94780.38
2023-05-22T16:42:39.846Z,94777.13
2023-05-22T16:45:08.808Z,94779.59
2023-05-22T16:47:36.841Z,94781.63
2023-05-22T16:50:05.230Z,94771.22
2023-05-22T16:52:33.103Z,94777.09
2023-05-22T16:55:01.189Z,94783.16
2023-05-22T16:57:29.304Z,94776.75
2023-05-22T16:59:58.688Z,94771.38
2023-05-22T17:02:26.941Z,94765.75
2023-05-22T17:04:55.478Z,94773.31
2023-05-22T17:07:23.453Z,94773.59
2023-05-22T17:09:51.290Z,94760.31
2023-05-22T17:12:19.253Z,94756.69
2023-05-22T17:14:47.392Z,94765.06
2023-05-22T17:17:16.775Z,94765.56
2023-05-22T17:19:44.661Z,94770.97
2023-05-22T17:22:12.522Z,94762.56
2023-05-22T17:24:40.725Z,94767.47
2023-05-22T17:27:08.629Z,94764.28
2023-05-22T17:29:37.050Z,94773.69
2023-05-22T17:32:06.399Z,94776.34
2023-05-22T17:34:36.102Z,94773.81
2023-05-22T17:37:04.014Z,94776.13
2023-05-22T17:39:31.848Z,94770.81
2023-05-22T17:42:00.552Z,94771.00
2023-05-22T17:44:28.535Z,94778.66
2023-05-22T17:46:56.399Z,94777.38
2023-05-22T17:49:27.006Z,94782.41
2023-05-22T17:51:56.325Z,94792.38
2023-05-22T17:54:24.191Z,94791.19
2023-05-22T17:56:52.087Z,94790.81
2023-05-22T17:59:19.915Z,94786.25
2023-05-22T18:01:48.012Z,94791.28
2023-05-22T18:04:15.924Z,94788.00
2023-05-22T18:06:43.748Z,94786.38
2023-05-22T18:09:13.003Z,94791.19
2023-05-22T18:11:40.912Z,94792.06
2023-05-22T18:14:08.787Z,94799.22
2023-05-22T18:16:36.770Z,94796.38
2023-05-22T18:19:04.803Z,94796.94
2023-05-22T18:21:32.745Z,94799.69
2023-05-22T18:24:00.674Z,94792.19
2023-05-22T18:26:29.879Z,94787.16
2023-05-22T18:28:57.838Z,94790.31
2023-05-22T18:31:25.806Z,94798.19
2023-05-22T18:33:53.859Z,94791.50
2023-05-22T18:36:21.831Z,94800.13
2023-05-22T18:38:49.687Z,94799.69
2023-05-22T18:41:17.705Z,94801.63
2023-05-22T18:43:47.074Z,94798.81
2023-05-22T18:46:15.012Z,94798.06
2023-05-22T18:48:42.879Z,94816.41
2023-05-22T18:51:10.788Z,94809.16
2023-05-22T18:53:38.586Z,94814.00
2023-05-22T18:56:06.678Z,94809.81
2023-05-22T18:58:34.490Z,94820.78
2023-05-22T19:01:04.182Z,94818.78
2023-05-22T19:03:32.047Z,94831.59
2023-05-22T19:06:00.009Z,94837.66
2023-05-22T19:08:27.945Z,94825.19
2023-05-22T19:10:59.808Z,94833.50
2023-05-22T19:13:28.572Z,94833.50
2023-05-22T19:15:57.329Z,94840.88
2023-05-22T19:18:29.842Z,94831.53
2023-05-22T19:20:57.703Z,94841.75
2023-05-22T19:23:26.803Z,94842.31
2023-05-22T19:25:55.635Z,94834.56
2023-05-22T19:28:23.670Z,94849.63
2023-05-22T19:30:51.828Z,94845.78
2023-05-22T19:33:23.468Z,94866.72
2023-05-22T19:35:55.753Z,94872.44
2023-05-22T19:38:24.056Z,94878.97
2023-05-22T19:40:52.020Z,94881.56
2023-05-22T19:43:20.438Z,94879.97
2023-05-22T19:45:48.350Z,94872.72
2023-05-22T19:48:16.273Z,94879.50
2023-05-22T19:50:44.705Z,94874.03
2023-05-22T19:53:15.830Z,94881.84
2023-05-22T19:55:43.789Z,94865.91
2023-05-22T19:58:11.923Z,94883.13
2023-05-22T20:00:41.120Z,94877.94
2023-05-22T20:03:09.460Z,94873.75
2023-05-22T20:05:37.809Z,94881.56
2023-05-22T20:08:07.140Z,94874.78
2023-05-22T20:10:36.566Z,94879.75
2023-05-22T20:13:05.157Z,94876.09
2023-05-22T20:15:33.214Z,94879.47
2023-05-22T20:18:02.524Z,94882.59
2023-05-22T20:20:30.542Z,94889.66
2023-05-22T20:22:59.133Z,94888.63
2023-05-22T20:25:30.131Z,94898.25
2023-05-22T20:27:59.524Z,94905.53
2023-05-22T20:30:27.456Z,94888.34
2023-05-22T20:32:55.432Z,94898.00
2023-05-22T20:35:23.652Z,94895.41
2023-05-22T20:37:53.387Z,94898.53
2023-05-22T20:40:21.821Z,94896.97
2023-05-22T20:42:50.502Z,94896.44
2023-05-22T20:45:20.176Z,94893.28
2023-05-22T20:47:48.433Z,94906.31
2023-05-22T20:50:16.624Z,94890.16
2023-05-22T20:52:45.927Z,94896.41
2023-05-22T20:55:14.307Z,94887.75
2023-05-22T20:57:42.299Z,94897.13
2023-05-22T21:00:13.820Z,94899.44
2023-05-22T21:02:43.163Z,94898.38
2023-05-22T21:05:11.269Z,94892.31
2023-05-22T21:07:39.085Z,94895.69
2023-05-22T21:10:08.146Z,94904.19
2023-05-22T21:12:36.134Z,94895.31
2023-05-22T21:15:04.269Z,94892.19
2023-05-22T21:17:32.136Z,94891.22
2023-05-22T21:20:01.373Z,94892.78
2023-05-22T21:22:29.220Z,94890.19
2023-05-22T21:24:57.129Z,94890.69
2023-05-22T21:27:26.091Z,94885.50
2023-05-22T21:29:53.986Z,94887.34
2023-05-22T21:32:21.967Z,94894.78
2023-05-22T21:34:49.941Z,94893.63
2023-05-22T21:37:19.118Z,94885.28
2023-05-22T21:39:46.968Z,94884.31
2023-05-22T21:42:16.362Z,94887.78
2023-05-22T21:44:44.305Z,94884.06
2023-05-22T21:47:12.274Z,94885.88
2023-05-22T21:49:40.109Z,94883.78
2023-05-22T21:52:08.061Z,94892.66
2023-05-22T21:54:37.316Z,94884.28
2023-05-22T21:57:05.450Z,94880.78
2023-05-22T21:59:33.381Z,94878.09
2023-05-22T22:02:01.574Z,94889.75
2023-05-22T22:04:29.542Z,94891.78
2023-05-22T22:06:57.385Z,94889.88
2023-05-22T22:09:25.202Z,94902.63
2023-05-22T22:11:54.434Z,94905.44
2023-05-22T22:14:22.460Z,94903.13
2023-05-22T22:16:54.178Z,94893.63
2023-05-22T22:19:22.548Z,94901.88
2023-05-22T22:21:50.930Z,94900.84
2023-05-22T22:24:19.028Z,94897.66
2023-05-22T22:26:47.809Z,94892.91
2023-05-22T22:29:17.390Z,94896.53
2023-05-22T22:31:45.527Z,94897.56
2023-05-22T22:34:13.540Z,94902.66
2023-05-22T22:36:41.948Z,94914.38
2023-05-22T22:39:09.774Z,94906.53
2023-05-22T22:41:37.710Z,94905.09
2023-05-22T22:44:05.936Z,94918.13
2023-05-22T22:46:35.396Z,94909.78
2023-05-22T22:49:03.445Z,94908.22
2023-05-22T22:51:31.826Z,94907.09
2023-05-22T22:53:59.697Z,94904.44
2023-05-22T22:56:29.346Z,94915.66
2023-05-22T22:58:57.839Z,94906.31
2023-05-22T23:01:25.763Z,94903.53
2023-05-22T23:03:55.095Z,94892.38
2023-05-22T23:06:23.901Z,94906.25
2023-05-22T23:08:51.806Z,94901.78
2023-05-22T23:11:19.643Z,94900.78
2023-05-22T23:13:47.484Z,94911.97
2023-05-22T23:16:15.449Z,94911.44
2023-05-22T23:18:43.464Z,94907.78
2023-05-22T23:21:12.635Z,94904.84
2023-05-22T23:23:40.479Z,94909.75
2023-05-22T23:26:08.277Z,94906.63
2023-05-22T23:28:36.168Z,94907.59
2023-05-22T23:31:04.085Z,94910.72
2023-05-22T23:33:31.999Z,94912.16
2023-05-22T23:35:59.848Z,94914.06
2023-05-22T23:38:29.143Z,94911.97
2023-05-22T23:40:56.982Z,94906.00
2023-05-22T23:43:24.933Z,94922.28
2023-05-22T23:45:52.792Z,94927.56
2023-05-22T23:48:20.586Z,94928.13
2023-05-22T23:50:48.473Z,94924.03
2023-05-22T23:53:16.360Z,94920.41
2023-05-22T23:55:45.708Z,94914.09
2023-05-22T23:58:13.612Z,94927.94
